Time;durP1;ratioP1;P1;durP2;ratioP2;P2;SDS_P1;SDS_P2;PMS_P1;PMS_P2;Temp;Humidity;BMP_temperature;BMP_pressure;BME280_temperature;BME280_humidity;BME280_pressure;Samples;Min_cycle;Max_cycle;Signal;HPM_P1;HPM_P2
2021/12/08 00:02:15;;;;;;;4.77;4.27;;;;;;;;;;5059956;28;20414;-81
2021/12/08 00:04:42;;;;;;;6.43;4.60;;;;;;;;;;5059260;28;20421;-81
2021/12/08 00:07:08;;;;;;;7.23;4.60;;;;;;;;;;5061098;28;20414;-81
2021/12/08 00:09:47;;;;;;;8.87;5.00;;;;;;;;;;5059422;28;20415;-81
2021/12/08 00:14:58;;;;;;;8.07;5.40;;;;;;;;;;5060747;28;20436;-81
2021/12/08 00:17:25;;;;;;;7.70;5.63;;;;;;;;;;5058007;28;20408;-81
2021/12/08 00:19:51;;;;;;;6.80;5.33;;;;;;;;;;5060662;28;20390;-81
2021/12/08 00:22:17;;;;;;;6.77;5.10;;;;;;;;;;5059160;28;20409;-81
2021/12/08 00:24:44;;;;;;;11.10;5.60;;;;;;;;;;5059564;28;20413;-81
2021/12/08 00:27:11;;;;;;;5.90;5.30;;;;;;;;;;5059432;28;20409;-81
2021/12/08 00:29:37;;;;;;;7.77;5.70;;;;;;;;;;5059241;28;20853;-81
2021/12/08 00:32:04;;;;;;;5.60;5.00;;;;;;;;;;5066567;28;20484;-80
2021/12/08 00:34:32;;;;;;;8.07;5.20;;;;;;;;;;5067584;28;20398;-81
2021/12/08 00:37:00;;;;;;;8.17;5.27;;;;;;;;;;5065616;28;20452;-81
2021/12/08 00:39:26;;;;;;;9.10;6.07;;;;;;;;;;5061811;28;20398;-80
2021/12/08 00:41:53;;;;;;;9.70;5.87;;;;;;;;;;5062305;28;20438;-81
2021/12/08 00:44:19;;;;;;;6.73;5.00;;;;;;;;;;5062671;28;20484;-82
2021/12/08 00:46:45;;;;;;;6.80;5.70;;;;;;;;;;5060038;28;20489;-81
2021/12/08 00:49:13;;;;;;;8.07;5.10;;;;;;;;;;5061700;28;20501;-81
2021/12/08 00:51:40;;;;;;;7.43;5.07;;;;;;;;;;5061841;28;20505;-81
2021/12/08 00:54:06;;;;;;;6.60;4.80;;;;;;;;;;5060173;28;20408;-81
2021/12/08 00:56:32;;;;;;;5.73;5.13;;;;;;;;;;5059079;28;20513;-82
2021/12/08 00:58:58;;;;;;;7.97;5.30;;;;;;;;;;5061224;28;20432;-81
2021/12/08 01:01:25;;;;;;;7.60;4.23;;;;;;;;;;5060429;28;20413;-81
2021/12/08 01:03:51;;;;;;;9.07;5.90;;;;;;;;;;5060979;28;20406;-81
2021/12/08 01:06:17;;;;;;;7.73;4.80;;;;;;;;;;5058385;28;20429;-81
2021/12/08 01:08:44;;;;;;;4.67;4.00;;;;;;;;;;5058408;28;20496;-82
2021/12/08 01:11:13;;;;;;;7.60;4.93;;;;;;;;;;5059210;28;20525;-82
2021/12/08 01:13:40;;;;;;;6.80;5.00;;;;;;;;;;5059569;28;20398;-81
2021/12/08 01:16:06;;;;;;;5.70;4.63;;;;;;;;;;5057752;28;21034;-81
2021/12/08 01:18:32;;;;;;;6.07;4.70;;;;;;;;;;5059862;28;20461;-82
2021/12/08 01:21:00;;;;;;;6.00;4.50;;;;;;;;;;5058993;28;20451;-81
2021/12/08 01:23:27;;;;;;;6.30;4.60;;;;;;;;;;5058464;28;20425;-81
2021/12/08 01:25:53;;;;;;;7.30;5.10;;;;;;;;;;5059152;28;20426;-81
2021/12/08 01:28:21;;;;;;;7.60;4.77;;;;;;;;;;5058020;28;20479;-82
2021/12/08 01:30:49;;;;;;;5.90;4.70;;;;;;;;;;5057701;28;20457;-81
2021/12/08 01:33:15;;;;;;;6.33;4.53;;;;;;;;;;5059796;28;20402;-82
2021/12/08 01:35:41;;;;;;;5.40;4.30;;;;;;;;;;5059060;28;20495;-81
2021/12/08 01:38:07;;;;;;;5.33;4.30;;;;;;;;;;5059276;28;20401;-81
2021/12/08 01:40:33;;;;;;;5.20;4.10;;;;;;;;;;5067852;28;20931;-80
2021/12/08 01:43:02;;;;;;;6.90;4.90;;;;;;;;;;5064648;28;20490;-81
2021/12/08 01:48:15;;;;;;;10.10;4.83;;;;;;;;;;5058734;28;20949;-81
2021/12/08 01:50:42;;;;;;;9.73;5.13;;;;;;;;;;5059042;28;20776;-81
2021/12/08 01:53:09;;;;;;;11.53;4.90;;;;;;;;;;5058241;28;20398;-81
2021/12/08 01:55:36;;;;;;;6.47;4.20;;;;;;;;;;5059033;28;20559;-81
2021/12/08 01:58:03;;;;;;;7.77;4.87;;;;;;;;;;5059875;28;20426;-81
2021/12/08 02:00:32;;;;;;;7.90;5.00;;;;;;;;;;5058209;28;20410;-81
2021/12/08 02:02:58;;;;;;;8.47;4.37;;;;;;;;;;5057210;28;20468;-81
2021/12/08 02:05:26;;;;;;;10.80;5.80;;;;;;;;;;5059398;28;20422;-81
2021/12/08 02:07:52;;;;;;;11.10;5.23;;;;;;;;;;5059394;28;20406;-81
2021/12/08 02:10:18;;;;;;;7.37;4.53;;;;;;;;;;5059604;28;20436;-82
2021/12/08 02:12:46;;;;;;;7.37;4.67;;;;;;;;;;5058669;28;20446;-81
2021/12/08 02:15:13;;;;;;;6.13;4.30;;;;;;;;;;5051140;28;20945;-81
2021/12/08 02:17:40;;;;;;;6.07;3.90;;;;;;;;;;5058027;28;20437;-81
2021/12/08 02:20:07;;;;;;;6.70;4.03;;;;;;;;;;5058742;28;20398;-82
2021/12/08 02:22:34;;;;;;;8.00;4.20;;;;;;;;;;5056807;28;20410;-81
2021/12/08 02:25:00;;;;;;;6.70;4.23;;;;;;;;;;5057760;28;20437;-81
2021/12/08 02:27:26;;;;;;;4.00;3.50;;;;;;;;;;5058810;28;20433;-80
2021/12/08 02:29:58;;;;;;;4.17;3.77;;;;;;;;;;5059821;28;20590;-81
2021/12/08 02:46:36;;;;;;;4.30;3.13;;;;;;;;;;5057244;28;20568;-81
2021/12/08 02:48:54;;;;;;;5.30;4.30;;;;;;;;;;5061918;28;20475;-82
2021/12/08 02:51:20;;;;;;;6.10;4.00;;;;;;;;;;5062522;28;20445;-82
2021/12/08 02:53:47;;;;;;;6.30;3.70;;;;;;;;;;5062142;28;20486;-82
2021/12/08 02:56:14;;;;;;;6.70;4.20;;;;;;;;;;5060853;28;20429;-82
2021/12/08 02:58:40;;;;;;;6.37;3.90;;;;;;;;;;5061910;28;20778;-82
2021/12/08 03:01:07;;;;;;;6.07;3.50;;;;;;;;;;5060413;28;20433;-82
2021/12/08 03:03:34;;;;;;;5.40;3.53;;;;;;;;;;5061227;28;20413;-81
2021/12/08 03:06:00;;;;;;;7.33;3.80;;;;;;;;;;5073445;23;21232;-67
2021/12/08 03:08:26;;;;;;;6.27;3.80;;;;;;;;;;5055641;28;20486;-67
2021/12/08 03:10:53;;;;;;;6.10;3.70;;;;;;;;;;5055632;28;20451;-67
2021/12/08 03:13:28;;;;;;;5.20;3.73;;;;;;;;;;5055581;28;20425;-67
2021/12/08 03:15:54;;;;;;;7.87;4.10;;;;;;;;;;5055429;28;20377;-67
2021/12/08 03:18:20;;;;;;;4.57;3.40;;;;;;;;;;5064433;23;20425;-79
2021/12/08 03:20:48;;;;;;;5.27;3.93;;;;;;;;;;5078389;28;20906;-79
2021/12/08 03:23:21;;;;;;;5.40;3.80;;;;;;;;;;5078428;28;20400;-81
2021/12/08 03:25:55;;;;;;;7.20;3.70;;;;;;;;;;5078368;28;20405;-80
2021/12/08 03:28:25;;;;;;;4.20;3.30;;;;;;;;;;5078550;28;20392;-80
2021/12/08 03:33:21;;;;;;;4.70;3.63;;;;;;;;;;5078268;28;20819;-80
2021/12/08 03:35:48;;;;;;;5.80;3.50;;;;;;;;;;5081201;28;20413;-79
2021/12/08 03:38:14;;;;;;;13.33;3.87;;;;;;;;;;5081050;28;20599;-80
2021/12/08 03:40:40;;;;;;;7.70;4.40;;;;;;;;;;5082100;28;20498;-80
2021/12/08 03:43:07;;;;;;;5.87;4.27;;;;;;;;;;5077353;28;20801;-79
2021/12/08 03:45:35;;;;;;;7.37;3.80;;;;;;;;;;5071507;28;20472;-79
2021/12/08 03:48:04;;;;;;;5.10;3.50;;;;;;;;;;5057697;28;20509;-80
2021/12/08 03:50:36;;;;;;;5.40;3.63;;;;;;;;;;5057229;28;20426;-80
2021/12/08 03:53:02;;;;;;;8.70;4.10;;;;;;;;;;5058350;28;20736;-80
2021/12/08 03:55:28;;;;;;;5.60;4.37;;;;;;;;;;5058429;28;20800;-80
2021/12/08 03:57:54;;;;;;;6.90;4.60;;;;;;;;;;5058691;28;20414;-80
2021/12/08 04:00:22;;;;;;;4.30;3.37;;;;;;;;;;5056613;28;20459;-81
2021/12/08 04:02:48;;;;;;;5.60;4.30;;;;;;;;;;5056273;28;20456;-80
2021/12/08 04:05:20;;;;;;;7.70;4.30;;;;;;;;;;5057319;28;20860;-80
2021/12/08 04:07:48;;;;;;;7.20;5.00;;;;;;;;;;5056455;28;20413;-81
2021/12/08 04:10:20;;;;;;;7.93;4.40;;;;;;;;;;5057470;28;20892;-80
2021/12/08 04:12:47;;;;;;;8.07;4.30;;;;;;;;;;5056459;28;20446;-79
2021/12/08 04:15:14;;;;;;;5.07;4.00;;;;;;;;;;5057659;28;20437;-80
2021/12/08 04:17:41;;;;;;;4.13;3.70;;;;;;;;;;5057252;28;20455;-80
2021/12/08 04:20:14;;;;;;;4.90;4.00;;;;;;;;;;5055698;28;20789;-81
2021/12/08 04:22:42;;;;;;;4.47;3.50;;;;;;;;;;5057506;28;20413;-80
2021/12/08 04:25:09;;;;;;;4.50;3.77;;;;;;;;;;5057451;28;20901;-80
2021/12/08 04:27:37;;;;;;;4.80;3.90;;;;;;;;;;5056940;28;20512;-80
2021/12/08 04:30:05;;;;;;;5.10;4.00;;;;;;;;;;5060801;28;20418;-80
2021/12/08 04:32:33;;;;;;;5.00;4.10;;;;;;;;;;5066244;28;20806;-81
2021/12/08 04:35:00;;;;;;;5.33;3.90;;;;;;;;;;5057417;28;20820;-80
2021/12/08 04:37:31;;;;;;;5.27;4.50;;;;;;;;;;5057301;28;20413;-81
2021/12/08 04:40:20;;;;;;;8.93;4.27;;;;;;;;;;5056918;28;20398;-81
2021/12/08 04:42:59;;;;;;;6.47;4.27;;;;;;;;;;5056267;28;20394;-80
2021/12/08 04:45:35;;;;;;;9.53;8.70;;;;;;;;;;5056816;28;20449;-79
2021/12/08 04:48:29;;;;;;;6.90;4.90;;;;;;;;;;5055430;28;20412;-80
2021/12/08 05:09:33;;;;;;;4.53;4.13;;;;;;;;;;5047047;28;20440;-81
2021/12/08 05:12:05;;;;;;;7.40;4.20;;;;;;;;;;5057880;28;20479;-79
2021/12/08 05:14:37;;;;;;;6.83;4.90;;;;;;;;;;5056907;28;20402;-81
2021/12/08 05:17:14;;;;;;;5.87;4.77;;;;;;;;;;5057624;28;20409;-80
2021/12/08 05:19:42;;;;;;;5.60;4.10;;;;;;;;;;5056779;28;20413;-80
2021/12/08 05:22:10;;;;;;;5.87;4.00;;;;;;;;;;5057723;28;20406;-79
2021/12/08 05:24:39;;;;;;;7.10;4.37;;;;;;;;;;5055897;28;20489;-78
2021/12/08 05:27:09;;;;;;;8.20;4.63;;;;;;;;;;5055362;28;20440;-77
2021/12/08 05:29:41;;;;;;;5.50;4.73;;;;;;;;;;5057046;28;20501;-78
2021/12/08 05:32:07;;;;;;;5.57;3.70;;;;;;;;;;5058265;28;20461;-78
2021/12/08 05:34:34;;;;;;;5.20;4.27;;;;;;;;;;5059397;28;20416;-79
2021/12/08 05:37:00;;;;;;;6.33;4.23;;;;;;;;;;5057658;28;20459;-81
2021/12/08 05:39:28;;;;;;;5.27;3.87;;;;;;;;;;5056511;28;20401;-81
2021/12/08 05:41:56;;;;;;;6.20;4.00;;;;;;;;;;5056584;28;20429;-81
2021/12/08 05:44:23;;;;;;;5.33;3.50;;;;;;;;;;5056548;28;20409;-81
2021/12/08 05:46:51;;;;;;;8.20;5.10;;;;;;;;;;5056912;28;20426;-80
2021/12/08 05:49:18;;;;;;;10.70;4.90;;;;;;;;;;5056223;28;20406;-79
2021/12/08 05:51:44;;;;;;;12.50;5.87;;;;;;;;;;5056164;28;20449;-79
2021/12/08 05:54:26;;;;;;;7.47;4.70;;;;;;;;;;5056486;28;20410;-77
2021/12/08 05:56:56;;;;;;;5.77;5.17;;;;;;;;;;5053726;28;20446;-79
2021/12/08 05:59:23;;;;;;;6.70;4.80;;;;;;;;;;5053905;28;20391;-79
2021/12/08 06:02:02;;;;;;;6.00;4.87;;;;;;;;;;5053876;28;20495;-78
2021/12/08 06:04:29;;;;;;;6.40;5.03;;;;;;;;;;5054437;28;20390;-77
2021/12/08 06:06:56;;;;;;;6.73;5.03;;;;;;;;;;5054220;28;20799;-79
2021/12/08 06:09:23;;;;;;;7.60;4.77;;;;;;;;;;5054446;28;20413;-78
2021/12/08 06:11:50;;;;;;;7.13;5.17;;;;;;;;;;5054338;28;20518;-78
2021/12/08 06:14:17;;;;;;;5.83;4.30;;;;;;;;;;5055564;28;20853;-79
2021/12/08 06:16:44;;;;;;;9.10;4.80;;;;;;;;;;5059097;28;20426;-78
2021/12/08 06:19:11;;;;;;;5.03;3.90;;;;;;;;;;5058509;28;20851;-78
2021/12/08 06:21:37;;;;;;;5.57;3.93;;;;;;;;;;5058908;28;20473;-79
2021/12/08 06:24:05;;;;;;;6.43;4.50;;;;;;;;;;5057659;28;20410;-80
2021/12/08 06:26:31;;;;;;;8.27;4.80;;;;;;;;;;5061821;28;20430;-80
2021/12/08 06:28:58;;;;;;;6.33;4.23;;;;;;;;;;5062150;28;20791;-81
2021/12/08 06:31:25;;;;;;;6.77;4.60;;;;;;;;;;5059858;28;21035;-81
2021/12/08 06:33:52;;;;;;;8.00;3.93;;;;;;;;;;5058646;28;20410;-80
2021/12/08 06:36:20;;;;;;;7.90;4.80;;;;;;;;;;5059571;28;20520;-81
2021/12/08 06:38:47;;;;;;;5.90;3.93;;;;;;;;;;5059658;28;20417;-81
2021/12/08 06:41:16;;;;;;;5.73;3.70;;;;;;;;;;5059808;28;20409;-81
2021/12/08 06:43:43;;;;;;;5.07;4.17;;;;;;;;;;5059794;28;20433;-80
2021/12/08 06:46:10;;;;;;;5.33;3.50;;;;;;;;;;5060294;28;20421;-80
2021/12/08 06:48:38;;;;;;;9.27;5.67;;;;;;;;;;5059843;28;20845;-80
2021/12/08 06:51:10;;;;;;;4.70;3.57;;;;;;;;;;5060511;28;20491;-80
2021/12/08 06:53:37;;;;;;;6.83;4.97;;;;;;;;;;5061406;28;20432;-81
2021/12/08 06:56:08;;;;;;;6.50;3.80;;;;;;;;;;5059758;28;20426;-80
2021/12/08 06:58:36;;;;;;;7.40;4.77;;;;;;;;;;5061139;28;20448;-80
2021/12/08 07:09:04;;;;;;;6.60;3.70;;;;;;;;;;5060024;28;20462;-80
2021/12/08 07:11:30;;;;;;;4.07;3.40;;;;;;;;;;5059905;28;20445;-81
2021/12/08 07:13:56;;;;;;;8.70;4.33;;;;;;;;;;5060203;28;20438;-80
2021/12/08 07:16:25;;;;;;;8.00;4.43;;;;;;;;;;5059304;28;20458;-80
2021/12/08 07:18:59;;;;;;;7.53;3.47;;;;;;;;;;5059220;28;20931;-82
2021/12/08 07:21:27;;;;;;;6.13;3.80;;;;;;;;;;5057748;28;20416;-80
2021/12/08 07:23:59;;;;;;;4.70;3.00;;;;;;;;;;5058008;28;20410;-79
2021/12/08 07:26:27;;;;;;;4.43;3.50;;;;;;;;;;5057101;28;20788;-79
2021/12/08 07:28:55;;;;;;;4.20;2.87;;;;;;;;;;5057482;28;20437;-80
2021/12/08 07:31:26;;;;;;;4.83;2.87;;;;;;;;;;5058346;28;20438;-79
2021/12/08 07:33:53;;;;;;;4.93;3.50;;;;;;;;;;5059205;28;20470;-79
2021/12/08 07:36:21;;;;;;;6.50;3.33;;;;;;;;;;5055477;28;20429;-79
2021/12/08 07:38:50;;;;;;;6.13;3.17;;;;;;;;;;5059087;28;20452;-79
2021/12/08 07:41:20;;;;;;;5.50;3.60;;;;;;;;;;5058560;28;20744;-79
2021/12/08 07:43:51;;;;;;;6.00;3.60;;;;;;;;;;5073321;28;20420;-79
2021/12/08 07:46:25;;;;;;;5.20;3.23;;;;;;;;;;5078898;28;20421;-79
2021/12/08 07:48:55;;;;;;;5.57;3.30;;;;;;;;;;5096500;28;20400;-80
2021/12/08 07:51:28;;;;;;;6.77;3.60;;;;;;;;;;5093705;28;20455;-80
2021/12/08 07:53:54;;;;;;;4.17;3.37;;;;;;;;;;5078568;28;20805;-79
2021/12/08 07:56:22;;;;;;;5.27;3.40;;;;;;;;;;5092974;28;20436;-79
2021/12/08 07:58:50;;;;;;;5.00;3.87;;;;;;;;;;5080641;28;20417;-79
2021/12/08 08:01:22;;;;;;;9.90;3.60;;;;;;;;;;5073363;28;20407;-79
2021/12/08 08:03:48;;;;;;;6.00;3.53;;;;;;;;;;5074838;28;20504;-79
2021/12/08 08:06:19;;;;;;;6.23;3.57;;;;;;;;;;5079225;28;20425;-78
2021/12/08 08:08:45;;;;;;;4.97;3.10;;;;;;;;;;5082102;28;20405;-79
2021/12/08 08:11:17;;;;;;;5.43;4.23;;;;;;;;;;5082346;28;20452;-79
2021/12/08 08:13:43;;;;;;;6.33;3.27;;;;;;;;;;5081539;28;20413;-79
2021/12/08 08:16:12;;;;;;;4.83;3.67;;;;;;;;;;5081270;28;20516;-79
2021/12/08 08:18:40;;;;;;;24.97;6.70;;;;;;;;;;5079487;28;20504;-80
2021/12/08 08:21:08;;;;;;;105.97;17.23;;;;;;;;;;5079205;28;20425;-80
2021/12/08 08:23:37;;;;;;;39.97;9.20;;;;;;;;;;5079949;28;20445;-81
2021/12/08 08:26:05;;;;;;;5.67;3.67;;;;;;;;;;5080098;28;20441;-80
2021/12/08 08:28:32;;;;;;;16.17;5.87;;;;;;;;;;5082606;28;20449;-80
2021/12/08 08:31:03;;;;;;;60.50;10.17;;;;;;;;;;5081626;28;20448;-80
2021/12/08 08:33:31;;;;;;;20.30;5.13;;;;;;;;;;5081185;28;20413;-79
2021/12/08 08:35:58;;;;;;;6.20;3.70;;;;;;;;;;5081539;28;20463;-78
2021/12/08 08:38:31;;;;;;;11.10;6.00;;;;;;;;;;5083731;28;20898;-78
2021/12/08 08:41:05;;;;;;;8.57;2.53;;;;;;;;;;5080048;28;20449;-79
2021/12/08 08:43:31;;;;;;;10.23;3.93;;;;;;;;;;5081367;28;20759;-79
2021/12/08 08:46:13;;;;;;;5.80;3.27;;;;;;;;;;5080502;28;20467;-79
2021/12/08 08:48:41;;;;;;;5.67;3.03;;;;;;;;;;5079717;28;20474;-80
2021/12/08 08:51:14;;;;;;;7.03;3.07;;;;;;;;;;5077504;28;20457;-79
2021/12/08 08:53:43;;;;;;;6.07;3.90;;;;;;;;;;5071871;28;20501;-80
2021/12/08 08:56:20;;;;;;;3.60;2.63;;;;;;;;;;5077735;28;20461;-81
2021/12/08 08:58:49;;;;;;;4.23;2.63;;;;;;;;;;5074812;28;20412;-79
2021/12/08 09:01:20;;;;;;;4.20;2.90;;;;;;;;;;5075774;28;20450;-79
2021/12/08 09:03:49;;;;;;;9.80;3.77;;;;;;;;;;5075858;28;20413;-80
2021/12/08 09:06:19;;;;;;;5.93;3.63;;;;;;;;;;5080880;28;20919;-80
2021/12/08 09:08:46;;;;;;;12.07;6.00;;;;;;;;;;5077030;28;20410;-79
2021/12/08 09:11:15;;;;;;;7.17;4.40;;;;;;;;;;5079959;28;20544;-80
2021/12/08 09:14:00;;;;;;;9.23;4.40;;;;;;;;;;5081235;28;20416;-78
2021/12/08 09:16:31;;;;;;;6.53;3.70;;;;;;;;;;5080129;28;20436;-78
2021/12/08 09:19:04;;;;;;;8.70;3.90;;;;;;;;;;5083483;28;20436;-77
2021/12/08 09:21:30;;;;;;;6.03;4.20;;;;;;;;;;5081878;28;20427;-78
2021/12/08 09:23:57;;;;;;;7.80;4.30;;;;;;;;;;5082709;28;20201;-77
2021/12/08 09:26:24;;;;;;;5.60;4.07;;;;;;;;;;5079221;28;20506;-77
2021/12/08 09:29:04;;;;;;;8.90;4.80;;;;;;;;;;5081756;28;20824;-77
2021/12/08 09:31:35;;;;;;;6.73;4.17;;;;;;;;;;5085478;28;20436;-78
2021/12/08 09:34:07;;;;;;;7.83;5.70;;;;;;;;;;5082024;28;20433;-79
2021/12/08 09:36:39;;;;;;;10.73;4.90;;;;;;;;;;5076064;28;20485;-79
2021/12/08 09:39:08;;;;;;;11.90;5.20;;;;;;;;;;5076744;28;20163;-80
2021/12/08 09:41:43;;;;;;;4.97;3.60;;;;;;;;;;5076319;28;20462;-78
2021/12/08 09:44:15;;;;;;;8.07;4.20;;;;;;;;;;5076072;28;20442;-79
2021/12/08 09:46:42;;;;;;;15.00;4.73;;;;;;;;;;5074087;28;20484;-79
2021/12/08 09:49:10;;;;;;;8.93;3.80;;;;;;;;;;5068449;28;20424;-79
2021/12/08 09:51:37;;;;;;;8.87;3.43;;;;;;;;;;5076727;28;20456;-80
2021/12/08 09:54:04;;;;;;;6.88;3.80;;;;;;;;;;5072751;28;20422;-79
2021/12/08 09:56:30;;;;;;;6.33;3.87;;;;;;;;;;5075471;28;20247;-80
2021/12/08 09:58:57;;;;;;;6.70;4.07;;;;;;;;;;5073968;28;20448;-80
2021/12/08 10:01:24;;;;;;;7.33;3.80;;;;;;;;;;5069825;28;20462;-80
2021/12/08 10:03:52;;;;;;;6.50;3.87;;;;;;;;;;5074494;28;20428;-80
2021/12/08 10:06:19;;;;;;;8.37;4.60;;;;;;;;;;5069632;28;20444;-80
2021/12/08 10:08:45;;;;;;;10.73;5.57;;;;;;;;;;5073566;28;20421;-80
2021/12/08 10:11:12;;;;;;;6.27;4.10;;;;;;;;;;5072454;28;20528;-81
2021/12/08 10:13:38;;;;;;;9.23;4.80;;;;;;;;;;5074894;28;20417;-80
2021/12/08 10:16:06;;;;;;;7.23;3.70;;;;;;;;;;5073731;28;20437;-80
2021/12/08 10:18:32;;;;;;;9.17;5.17;;;;;;;;;;5075264;28;20478;-80
2021/12/08 10:20:58;;;;;;;6.93;4.43;;;;;;;;;;5068636;28;20426;-80
2021/12/08 10:23:38;;;;;;;12.90;5.37;;;;;;;;;;5073293;28;20486;-80
2021/12/08 10:26:15;;;;;;;8.43;5.80;;;;;;;;;;5075926;28;20433;-80
2021/12/08 10:28:46;;;;;;;7.70;4.90;;;;;;;;;;5076187;28;20413;-82
2021/12/08 10:31:15;;;;;;;6.30;4.33;;;;;;;;;;5074413;28;20535;-81
2021/12/08 10:36:45;;;;;;;8.30;4.90;;;;;;;;;;5070967;28;20440;-79
2021/12/08 10:39:20;;;;;;;10.37;4.00;;;;;;;;;;5074567;28;20930;-80
2021/12/08 10:41:52;;;;;;;9.60;5.10;;;;;;;;;;5075742;28;20420;-81
2021/12/08 10:44:23;;;;;;;9.53;4.57;;;;;;;;;;5074078;28;20417;-80
2021/12/08 10:46:51;;;;;;;10.00;4.70;;;;;;;;;;5072061;28;20424;-80
2021/12/08 10:49:27;;;;;;;9.57;4.50;;;;;;;;;;5073228;28;20420;-81
2021/12/08 10:54:38;;;;;;;17.95;11.68;;;;;;;;;;5072340;28;20411;-81
2021/12/08 10:57:22;;;;;;;13.67;7.80;;;;;;;;;;5074648;28;20194;-81
2021/12/08 10:59:53;;;;;;;9.57;4.60;;;;;;;;;;5082618;28;20417;-82
2021/12/08 11:02:38;;;;;;;11.73;6.60;;;;;;;;;;5077971;28;20496;-81
2021/12/08 11:05:05;;;;;;;15.07;7.93;;;;;;;;;;5078953;28;20423;-82
2021/12/08 11:07:31;;;;;;;26.50;13.13;;;;;;;;;;5079397;28;20428;-83
2021/12/08 11:09:58;;;;;;;16.70;7.50;;;;;;;;;;5077492;28;20409;-81
2021/12/08 11:12:40;;;;;;;14.53;5.10;;;;;;;;;;5078567;28;22384;-79
2021/12/08 11:15:18;;;;;;;15.63;4.57;;;;;;;;;;5071969;28;20780;-81
2021/12/08 11:17:45;;;;;;;7.70;4.50;;;;;;;;;;5078896;28;20890;-82
2021/12/08 11:20:24;;;;;;;28.03;12.80;;;;;;;;;;5079339;28;20429;-81
2021/12/08 11:23:04;;;;;;;38.23;15.70;;;;;;;;;;5079666;28;20446;-80
2021/12/08 11:25:39;;;;;;;48.53;23.23;;;;;;;;;;5077340;28;20485;-79
2021/12/08 11:28:21;;;;;;;10.30;7.00;;;;;;;;;;5072675;28;20410;-80
2021/12/08 11:30:47;;;;;;;9.23;5.00;;;;;;;;;;5073777;28;20424;-81
2021/12/08 11:33:17;;;;;;;10.83;4.40;;;;;;;;;;5075870;28;20788;-81
2021/12/08 11:35:43;;;;;;;7.80;5.07;;;;;;;;;;5079427;28;20429;-81
2021/12/08 11:38:09;;;;;;;8.60;4.70;;;;;;;;;;5080075;28;20417;-82
2021/12/08 11:40:36;;;;;;;7.53;4.50;;;;;;;;;;5076802;28;20796;-82
2021/12/08 11:43:02;;;;;;;10.70;5.27;;;;;;;;;;5078734;28;20451;-81
2021/12/08 11:45:36;;;;;;;27.40;11.13;;;;;;;;;;5081845;28;20463;-80
2021/12/08 11:48:03;;;;;;;14.07;8.10;;;;;;;;;;5078825;28;20404;-81
2021/12/08 11:50:32;;;;;;;8.40;5.30;;;;;;;;;;5081120;28;20798;-81
2021/12/08 11:52:58;;;;;;;12.37;5.83;;;;;;;;;;5083166;28;20448;-82
2021/12/08 11:55:25;;;;;;;7.20;4.80;;;;;;;;;;5079990;28;20444;-80
2021/12/08 11:57:56;;;;;;;11.57;6.77;;;;;;;;;;5073952;28;20433;-82
2021/12/08 12:00:23;;;;;;;13.70;8.80;;;;;;;;;;5075899;28;20415;-80
2021/12/08 12:03:01;;;;;;;10.70;6.53;;;;;;;;;;5077358;28;21001;-79
2021/12/08 12:05:27;;;;;;;8.00;5.43;;;;;;;;;;5075106;28;20444;-80
2021/12/08 12:07:54;;;;;;;14.33;6.00;;;;;;;;;;5077737;28;20479;-80
2021/12/08 12:10:21;;;;;;;10.00;5.53;;;;;;;;;;5078128;28;20420;-80
2021/12/08 12:12:47;;;;;;;10.53;5.40;;;;;;;;;;5078484;28;20954;-82
2021/12/08 12:15:15;;;;;;;5.80;5.20;;;;;;;;;;5076823;28;20421;-81
2021/12/08 12:17:42;;;;;;;8.77;5.47;;;;;;;;;;5073792;28;20437;-82
2021/12/08 12:20:25;;;;;;;8.60;5.77;;;;;;;;;;5076426;28;20432;-80
2021/12/08 12:23:10;;;;;;;10.60;5.50;;;;;;;;;;5073927;28;20429;-82
2021/12/08 12:25:48;;;;;;;12.40;6.53;;;;;;;;;;5076016;28;20439;-81
2021/12/08 12:28:28;;;;;;;7.60;5.60;;;;;;;;;;5074947;28;20422;-82
2021/12/08 12:31:10;;;;;;;7.30;6.00;;;;;;;;;;5074686;28;20832;-81
2021/12/08 12:33:42;;;;;;;10.60;6.40;;;;;;;;;;5074394;28;20574;-79
2021/12/08 12:36:18;;;;;;;7.73;5.40;;;;;;;;;;5075050;28;20432;-80
2021/12/08 12:38:44;;;;;;;8.10;5.70;;;;;;;;;;5076634;28;20469;-83
2021/12/08 12:41:22;;;;;;;7.27;5.20;;;;;;;;;;5077452;28;20417;-81
2021/12/08 12:43:50;;;;;;;6.07;4.90;;;;;;;;;;5076211;28;20967;-80
2021/12/08 12:46:17;;;;;;;8.00;5.07;;;;;;;;;;5075622;28;20523;-81
2021/12/08 12:48:52;;;;;;;8.43;5.90;;;;;;;;;;5071885;28;20420;-84
2021/12/08 12:51:21;;;;;;;7.50;5.27;;;;;;;;;;5073437;28;20456;-83
2021/12/08 12:53:56;;;;;;;12.50;6.00;;;;;;;;;;5076575;28;20463;-82
2021/12/08 12:56:28;;;;;;;7.97;5.73;;;;;;;;;;5076704;28;20523;-82
2021/12/08 12:58:56;;;;;;;11.07;5.80;;;;;;;;;;5069561;28;20417;-82
2021/12/08 13:01:34;;;;;;;10.63;7.13;;;;;;;;;;5073409;28;20427;-81
2021/12/08 13:04:09;;;;;;;9.77;4.67;;;;;;;;;;5074565;28;20425;-81
2021/12/08 13:06:41;;;;;;;9.30;4.87;;;;;;;;;;5076293;28;20436;-82
2021/12/08 13:09:08;;;;;;;11.70;7.50;;;;;;;;;;5087049;22;20490;-68
2021/12/08 13:11:45;;;;;;;10.90;7.30;;;;;;;;;;5050983;28;20460;-68
2021/12/08 13:14:21;;;;;;;25.90;15.80;;;;;;;;;;5052231;28;20420;-68
2021/12/08 13:17:06;;;;;;;9.07;7.93;;;;;;;;;;5050829;28;22599;-68
2021/12/08 13:19:58;;;;;;;5.47;3.50;;;;;;;;;;5052266;28;20409;-68
2021/12/08 13:22:44;;;;;;;8.70;3.30;;;;;;;;;;5048468;28;20430;-68
2021/12/08 13:25:27;;;;;;;7.00;3.07;;;;;;;;;;5049676;28;20468;-68
2021/12/08 13:27:55;;;;;;;12.37;5.47;;;;;;;;;;5050670;28;20418;-68
2021/12/08 13:30:21;;;;;;;6.43;4.13;;;;;;;;;;5051575;28;20426;-68
2021/12/08 13:32:56;;;;;;;6.93;3.60;;;;;;;;;;5049443;28;20471;-68
2021/12/08 13:35:33;;;;;;;10.70;4.57;;;;;;;;;;5049088;28;20422;-66
2021/12/08 13:37:59;;;;;;;4.30;3.23;;;;;;;;;;5045149;28;20583;-68
2021/12/08 13:40:41;;;;;;;9.77;7.87;;;;;;;;;;5052147;28;20962;-72
2021/12/08 13:43:09;;;;;;;9.33;7.27;;;;;;;;;;5051712;28;20527;-71
2021/12/08 13:45:42;;;;;;;8.10;5.70;;;;;;;;;;5051512;28;20454;-71
2021/12/08 13:48:09;;;;;;;18.83;9.80;;;;;;;;;;5051204;28;20410;-72
2021/12/08 13:50:36;;;;;;;12.77;5.03;;;;;;;;;;5051041;28;20923;-71
2021/12/08 13:53:08;;;;;;;4.30;3.27;;;;;;;;;;5049318;28;20472;-72
2021/12/08 13:55:38;;;;;;;8.50;4.70;;;;;;;;;;5051694;28;20406;-73
2021/12/08 13:58:05;;;;;;;6.87;3.77;;;;;;;;;;5051341;28;20548;-73
2021/12/08 14:00:34;;;;;;;6.67;4.40;;;;;;;;;;5050470;28;20426;-74
2021/12/08 14:03:06;;;;;;;7.00;4.43;;;;;;;;;;5050919;28;20429;-74
2021/12/08 14:05:35;;;;;;;5.67;4.07;;;;;;;;;;5051482;28;20422;-74
2021/12/08 14:08:21;;;;;;;7.00;4.33;;;;;;;;;;5050800;28;20918;-74
2021/12/08 14:10:51;;;;;;;6.77;5.07;;;;;;;;;;5040626;28;20453;-74
2021/12/08 14:13:18;;;;;;;8.20;4.47;;;;;;;;;;5050668;28;20426;-74
2021/12/08 14:15:47;;;;;;;9.80;4.73;;;;;;;;;;5050283;28;20919;-74
2021/12/08 14:18:22;;;;;;;12.03;5.77;;;;;;;;;;5051334;28;20780;-74
2021/12/08 14:20:48;;;;;;;8.53;4.90;;;;;;;;;;5050604;28;20429;-69
2021/12/08 14:23:14;;;;;;;11.63;4.40;;;;;;;;;;5045511;28;20417;-70
2021/12/08 14:25:40;;;;;;;6.70;3.70;;;;;;;;;;5044307;28;20494;-75
2021/12/08 14:28:25;;;;;;;6.03;4.83;;;;;;;;;;5053317;28;20425;-75
2021/12/08 14:30:51;;;;;;;7.17;4.70;;;;;;;;;;5052008;28;20539;-73
2021/12/08 14:33:23;;;;;;;5.40;4.23;;;;;;;;;;5050861;28;20422;-71
2021/12/08 14:36:03;;;;;;;6.53;4.10;;;;;;;;;;5052462;28;20398;-71
2021/12/08 14:38:29;;;;;;;7.00;4.53;;;;;;;;;;5054917;28;20421;-71
2021/12/08 14:40:56;;;;;;;5.60;4.17;;;;;;;;;;5055379;28;20459;-66
2021/12/08 14:43:36;;;;;;;7.50;4.53;;;;;;;;;;5054449;28;20441;-68
2021/12/08 14:46:16;;;;;;;40.63;6.87;;;;;;;;;;5053829;28;20850;-67
2021/12/08 14:48:53;;;;;;;9.10;4.50;;;;;;;;;;5054780;28;20397;-66
2021/12/08 14:51:22;;;;;;;11.33;5.90;;;;;;;;;;5050799;28;20456;-71
2021/12/08 14:53:49;;;;;;;5.60;4.40;;;;;;;;;;5054649;28;20421;-72
2021/12/08 14:56:15;;;;;;;13.30;5.03;;;;;;;;;;5054247;28;20437;-74
2021/12/08 14:58:41;;;;;;;8.20;4.70;;;;;;;;;;5054578;28;20422;-71
2021/12/08 15:01:08;;;;;;;17.33;6.10;;;;;;;;;;5054427;28;20445;-74
2021/12/08 15:03:39;;;;;;;17.37;4.60;;;;;;;;;;5039156;28;20421;-69
2021/12/08 15:06:05;;;;;;;10.17;4.97;;;;;;;;;;5044563;28;20453;-68
2021/12/08 15:08:38;;;;;;;19.97;5.27;;;;;;;;;;5048535;28;20420;-69
2021/12/08 15:11:04;;;;;;;10.00;5.57;;;;;;;;;;5053560;28;20786;-70
2021/12/08 15:13:31;;;;;;;12.93;5.47;;;;;;;;;;5049484;28;20898;-68
2021/12/08 15:15:57;;;;;;;8.97;5.50;;;;;;;;;;5053280;28;20413;-70
2021/12/08 15:18:25;;;;;;;10.23;6.93;;;;;;;;;;5053616;28;20827;-69
2021/12/08 15:20:59;;;;;;;12.20;6.50;;;;;;;;;;5052270;28;20434;-71
2021/12/08 15:23:38;;;;;;;7.73;5.53;;;;;;;;;;5054062;28;20473;-71
2021/12/08 15:26:06;;;;;;;9.00;4.60;;;;;;;;;;5053224;28;20470;-70
2021/12/08 15:28:33;;;;;;;6.50;4.30;;;;;;;;;;5053818;28;20410;-70
2021/12/08 15:31:00;;;;;;;7.87;3.77;;;;;;;;;;5053750;28;20442;-70
2021/12/08 15:33:26;;;;;;;9.30;4.77;;;;;;;;;;5052580;28;20455;-70
2021/12/08 15:35:54;;;;;;;8.27;5.83;;;;;;;;;;5052669;28;20501;-69
2021/12/08 15:38:21;;;;;;;9.40;4.27;;;;;;;;;;5045433;28;20425;-69
2021/12/08 15:40:49;;;;;;;6.30;4.43;;;;;;;;;;5049130;28;20913;-68
2021/12/08 15:43:17;;;;;;;6.80;4.60;;;;;;;;;;5053583;28;20460;-69
2021/12/08 15:45:44;;;;;;;6.97;4.00;;;;;;;;;;5054034;28;20422;-70
2021/12/08 15:48:13;;;;;;;6.80;5.10;;;;;;;;;;5052679;28;20418;-69
2021/12/08 15:50:44;;;;;;;8.50;4.07;;;;;;;;;;5053439;28;20445;-70